Time;durP1;ratioP1;P1;durP2;ratioP2;P2;SDS_P1;SDS_P2;PMS_P1;PMS_P2;Temp;Humidity;BMP_temperature;BMP_pressure;BME280_temperature;BME280_humidity;BME280_pressure;Samples;Min_cycle;Max_cycle;Signal;HPM_P1;HPM_P2
2021/01/16 00:02:19;;;;;;;36.43;22.83;;;;;;;2.10;100.00;102957.27;1896293;75;26642;-78
2021/01/16 00:04:48;;;;;;;32.10;22.30;;;;;;;2.19;100.00;102958.94;1886972;76;26215;-77
2021/01/16 00:07:18;;;;;;;37.07;23.23;;;;;;;2.20;100.00;102956.55;1896244;75;26179;-77
2021/01/16 00:09:48;;;;;;;35.80;21.93;;;;;;;2.21;100.00;102957.75;1886971;75;26234;-78
2021/01/16 00:12:18;;;;;;;33.60;21.83;;;;;;;2.25;100.00;102954.12;1896349;75;26725;-78
2021/01/16 00:14:48;;;;;;;31.80;21.03;;;;;;;2.23;100.00;102941.95;1886985;75;26203;-77
2021/01/16 00:17:18;;;;;;;27.57;19.63;;;;;;;2.27;100.00;102941.08;1896277;75;26182;-77
2021/01/16 00:19:48;;;;;;;34.37;20.13;;;;;;;2.43;100.00;102944.27;1886958;76;26214;-77
2021/01/16 00:22:17;;;;;;;31.70;20.83;;;;;;;2.31;100.00;102936.11;1896309;75;26626;-78
2021/01/16 00:24:47;;;;;;;28.40;19.80;;;;;;;2.42;100.00;102942.55;1886853;72;26246;-78
2021/01/16 00:27:17;;;;;;;34.10;20.83;;;;;;;2.35;100.00;102942.44;1896327;76;26183;-78
2021/01/16 00:29:47;;;;;;;28.33;19.87;;;;;;;2.34;100.00;102942.09;1886909;76;26234;-77
2021/01/16 00:32:17;;;;;;;31.73;21.00;;;;;;;2.47;100.00;102946.47;1896280;75;26186;-77
2021/01/16 00:34:47;;;;;;;32.93;20.97;;;;;;;2.44;100.00;102941.32;1887100;75;26230;-78
2021/01/16 00:37:17;;;;;;;29.53;20.63;;;;;;;2.39;100.00;102945.16;1896309;76;26689;-78
2021/01/16 00:39:46;;;;;;;31.63;21.20;;;;;;;2.47;100.00;102943.73;1887047;75;26693;-78
2021/01/16 00:42:16;;;;;;;31.67;19.03;;;;;;;2.40;100.00;102942.72;1896323;75;26696;-77
2021/01/16 00:44:46;;;;;;;29.80;19.60;;;;;;;2.47;100.00;102942.88;1886978;75;26203;-78
2021/01/16 00:47:16;;;;;;;28.60;18.73;;;;;;;2.44;100.00;102938.58;1896220;75;26165;-78
2021/01/16 00:49:46;;;;;;;32.10;20.53;;;;;;;2.41;100.00;102932.09;1886876;76;26237;-78
2021/01/16 00:52:16;;;;;;;28.93;19.10;;;;;;;2.43;100.00;102922.33;1896205;76;26189;-78
2021/01/16 00:54:46;;;;;;;27.37;18.67;;;;;;;2.43;100.00;102925.92;1887067;75;26256;-78
2021/01/16 00:57:16;;;;;;;28.70;19.83;;;;;;;2.53;100.00;102917.44;1896254;75;26170;-78
2021/01/16 00:59:46;;;;;;;32.17;19.57;;;;;;;2.52;100.00;102915.23;1886915;76;26214;-78
2021/01/16 01:02:16;;;;;;;27.30;19.13;;;;;;;2.58;100.00;102903.52;1896342;76;26167;-78
2021/01/16 01:04:46;;;;;;;23.90;15.67;;;;;;;2.58;100.00;102898.03;1886975;75;26208;-77
2021/01/16 01:07:16;;;;;;;24.10;16.60;;;;;;;2.71;100.00;102890.56;1896231;76;26646;-77
2021/01/16 01:09:46;;;;;;;20.30;14.70;;;;;;;2.84;100.00;102881.19;1886985;76;26194;-77
2021/01/16 01:12:16;;;;;;;20.83;13.87;;;;;;;2.95;100.00;102881.28;1896339;75;26190;-76
2021/01/16 01:14:46;;;;;;;18.93;13.40;;;;;;;2.96;100.00;102872.84;1886966;75;26210;-76
2021/01/16 01:17:18;;;;;;;16.67;12.17;;;;;;;2.93;100.00;102869.63;1896301;75;26230;-75
2021/01/16 01:19:47;;;;;;;18.17;12.27;;;;;;;3.07;100.00;102868.30;1886887;76;26677;-76
2021/01/16 01:22:17;;;;;;;17.03;11.33;;;;;;;3.11;100.00;102861.91;1896386;75;26182;-76
2021/01/16 01:24:47;;;;;;;17.37;11.63;;;;;;;3.17;100.00;102856.50;1886937;75;26235;-76
2021/01/16 01:27:17;;;;;;;14.57;10.37;;;;;;;3.17;100.00;102857.88;1896388;75;26219;-76
2021/01/16 01:29:47;;;;;;;13.63;10.30;;;;;;;3.34;100.00;102863.22;1886936;75;26265;-76
2021/01/16 01:32:17;;;;;;;16.43;11.53;;;;;;;3.30;100.00;102857.73;1896197;76;26163;-76
2021/01/16 01:34:46;;;;;;;14.70;10.37;;;;;;;3.30;100.00;102845.38;1886975;75;26313;-76
2021/01/16 01:37:16;;;;;;;13.47;11.00;;;;;;;3.33;100.00;102851.38;1896225;76;26171;-76
2021/01/16 01:39:46;;;;;;;13.73;9.77;;;;;;;3.26;100.00;102850.41;1886942;75;26208;-76
2021/01/16 01:42:17;;;;;;;12.43;10.07;;;;;;;3.36;100.00;102846.02;1886936;76;26207;-75
2021/01/16 01:44:49;;;;;;;12.80;8.77;;;;;;;3.36;100.00;102837.26;1896221;75;26182;-75
2021/01/16 01:47:19;;;;;;;10.27;8.13;;;;;;;3.40;100.00;102837.20;1886813;76;26230;-77
2021/01/16 01:49:49;;;;;;;9.27;7.53;;;;;;;3.34;100.00;102823.39;1887000;75;26227;-77
2021/01/16 01:52:21;;;;;;;10.33;7.40;;;;;;;3.40;100.00;102809.73;1886920;76;26269;-76
2021/01/16 01:54:53;;;;;;;9.67;7.70;;;;;;;3.42;100.00;102810.93;1886896;75;26242;-76
2021/01/16 01:57:25;;;;;;;10.53;7.73;;;;;;;3.44;100.00;102801.44;1886891;75;26261;-76
2021/01/16 01:59:56;;;;;;;9.07;6.73;;;;;;;3.60;100.00;102792.98;1886846;75;26219;-76
2021/01/16 02:02:27;;;;;;;6.97;5.73;;;;;;;3.46;100.00;102782.89;1887001;75;26673;-76
2021/01/16 02:04:59;;;;;;;9.70;5.70;;;;;;;3.50;100.00;102781.46;1886976;76;26701;-77
2021/01/16 02:07:37;;;;;;;7.33;5.53;;;;;;;3.50;100.00;102781.98;1886934;75;26227;-76
2021/01/16 02:10:04;;;;;;;7.67;5.27;;;;;;;3.62;100.00;102781.81;1886282;75;27061;-76
2021/01/16 02:12:34;;;;;;;7.73;5.73;;;;;;;3.61;100.00;102785.08;1886945;75;26747;-76
2021/01/16 02:15:18;;;;;;;6.43;5.00;;;;;;;3.72;100.00;102777.39;1886972;75;26222;-75
2021/01/16 02:17:50;;;;;;;6.50;5.47;;;;;;;3.73;100.00;102772.20;1887220;76;26670;-76
2021/01/16 02:20:27;;;;;;;6.20;4.63;;;;;;;3.72;100.00;102771.90;1886947;75;26682;-77
2021/01/16 02:23:35;;;;;;;7.13;4.60;;;;;;;3.71;100.00;102765.55;1886899;75;26249;-77
2021/01/16 02:26:46;;;;;;;6.57;4.00;;;;;;;3.68;100.00;102759.04;1846464;75;26302;-75
2021/01/16 02:29:16;;;;;;;7.13;3.80;;;;;;;3.75;100.00;102755.02;1887178;75;26182;-76
2021/01/16 02:31:51;;;;;;;5.10;4.43;;;;;;;3.76;100.00;102746.58;1886904;75;26246;-75
2021/01/16 02:34:23;;;;;;;5.43;4.17;;;;;;;3.74;100.00;102748.66;1887201;75;26633;-74
2021/01/16 02:37:33;;;;;;;6.83;4.53;;;;;;;3.82;100.00;102749.91;1887144;76;26793;-76
2021/01/16 02:40:15;;;;;;;4.23;3.60;;;;;;;3.81;100.00;102741.33;1851178;77;26814;-76
2021/01/16 02:42:56;;;;;;;6.30;3.37;;;;;;;3.96;100.00;102739.40;1851239;76;26609;-76
2021/01/16 02:45:32;;;;;;;4.47;3.70;;;;;;;3.88;100.00;102725.78;1886629;75;26678;-76
2021/01/16 02:48:12;;;;;;;6.30;3.63;;;;;;;3.93;100.00;102731.55;1886946;75;26208;-75
2021/01/16 02:50:44;;;;;;;5.30;3.67;;;;;;;3.96;100.00;102721.52;1887012;76;26214;-75
2021/01/16 02:53:14;;;;;;;4.33;3.67;;;;;;;3.95;100.00;102715.69;1886862;75;26219;-75
2021/01/16 02:55:45;;;;;;;6.20;3.60;;;;;;;3.89;100.00;102706.88;1887006;75;26281;-75
2021/01/16 02:58:16;;;;;;;5.83;3.60;;;;;;;3.90;100.00;102707.69;1887126;75;26262;-77
2021/01/16 03:00:47;;;;;;;3.70;3.20;;;;;;;3.91;100.00;102699.78;1886831;76;26218;-77
2021/01/16 03:03:17;;;;;;;5.63;3.40;;;;;;;3.91;100.00;102693.77;1886946;75;26226;-75
2021/01/16 03:05:46;;;;;;;6.13;3.00;;;;;;;3.94;100.00;102670.52;1887019;75;26214;-76
2021/01/16 03:08:16;;;;;;;3.90;3.30;;;;;;;3.96;100.00;102673.41;1886842;75;26308;-75
2021/01/16 03:10:47;;;;;;;6.93;3.87;;;;;;;4.03;100.00;102668.81;1886890;76;26251;-76
2021/01/16 03:13:17;;;;;;;5.07;3.33;;;;;;;4.11;100.00;102682.94;1886984;75;26752;-76
2021/01/16 03:15:47;;;;;;;3.77;3.40;;;;;;;4.11;100.00;102681.56;1886949;76;26218;-77
2021/01/16 03:18:20;;;;;;;5.27;2.97;;;;;;;4.03;100.00;102676.20;1886944;76;26693;-77
2021/01/16 03:20:51;;;;;;;4.03;3.20;;;;;;;4.13;100.00;102667.11;1886849;75;26222;-78
2021/01/16 03:23:20;;;;;;;5.13;3.13;;;;;;;4.01;100.00;102656.32;1886935;75;26242;-77
2021/01/16 03:25:50;;;;;;;4.77;2.90;;;;;;;4.12;100.00;102648.38;1887053;76;26232;-77
2021/01/16 03:28:20;;;;;;;4.50;3.37;;;;;;;4.13;100.00;102645.96;1887040;75;26270;-76
2021/01/16 03:30:50;;;;;;;3.17;2.87;;;;;;;4.05;100.00;102636.48;1887120;75;26194;-76
2021/01/16 03:33:20;;;;;;;4.57;3.50;;;;;;;4.03;100.00;102637.19;1886937;76;26214;-76
2021/01/16 03:35:49;;;;;;;3.67;3.37;;;;;;;4.05;100.00;102617.23;1887000;75;26203;-76
2021/01/16 03:38:19;;;;;;;4.27;3.53;;;;;;;4.03;100.00;102603.34;1887138;75;26178;-75
2021/01/16 03:40:49;;;;;;;4.47;3.13;;;;;;;4.06;100.00;102598.84;1887159;75;26186;-75
2021/01/16 03:43:19;;;;;;;4.47;3.50;;;;;;;4.05;100.00;102606.75;1887009;75;26265;-75
2021/01/16 03:45:49;;;;;;;3.73;3.10;;;;;;;4.05;100.00;102591.11;1887009;75;26222;-77
2021/01/16 03:48:19;;;;;;;5.77;3.70;;;;;;;4.12;100.00;102591.14;1886956;76;26222;-76
2021/01/16 03:50:49;;;;;;;3.70;3.07;;;;;;;4.08;100.00;102581.60;1886967;75;26230;-76
2021/01/16 03:53:19;;;;;;;4.10;3.30;;;;;;;4.04;100.00;102588.03;1886914;76;26678;-77
2021/01/16 03:55:48;;;;;;;4.00;3.43;;;;;;;4.06;100.00;102580.41;1886934;76;26756;-77
2021/01/16 03:58:19;;;;;;;4.03;3.47;;;;;;;4.06;100.00;102580.97;1886896;76;26693;-76
2021/01/16 04:00:49;;;;;;;5.13;3.73;;;;;;;4.08;100.00;102570.08;1886933;76;26295;-77
2021/01/16 04:03:18;;;;;;;7.07;3.80;;;;;;;4.05;100.00;102564.98;1886974;75;26700;-77
2021/01/16 04:05:48;;;;;;;4.07;3.67;;;;;;;4.03;100.00;102550.58;1886969;75;26200;-77
2021/01/16 04:08:20;;;;;;;4.90;3.90;;;;;;;4.03;100.00;102551.09;1886943;75;26203;-77
2021/01/16 04:10:50;;;;;;;4.27;3.50;;;;;;;4.08;100.00;102546.70;1887252;76;26312;-75
2021/01/16 04:13:20;;;;;;;4.80;3.87;;;;;;;4.02;100.00;102547.50;1886919;76;26219;-76
2021/01/16 04:15:50;;;;;;;4.70;3.97;;;;;;;4.05;100.00;102549.02;1886999;75;26689;-75
2021/01/16 04:18:20;;;;;;;7.00;4.67;;;;;;;4.02;100.00;102540.62;1886978;75;26669;-75
2021/01/16 04:20:50;;;;;;;5.30;3.97;;;;;;;4.09;100.00;102540.16;1886897;76;26218;-75
2021/01/16 04:23:19;;;;;;;8.83;4.40;;;;;;;4.03;100.00;102535.45;1886877;75;26258;-76
2021/01/16 04:25:49;;;;;;;4.67;3.93;;;;;;;4.05;100.00;102533.89;1887003;75;26265;-75
2021/01/16 04:28:19;;;;;;;5.57;4.13;;;;;;;4.08;100.00;102543.10;1886868;75;26258;-76
2021/01/16 04:30:50;;;;;;;4.63;4.20;;;;;;;4.04;100.00;102537.69;1886974;75;26219;-76
2021/01/16 04:33:20;;;;;;;5.03;3.97;;;;;;;4.06;100.00;102532.84;1886991;75;26269;-77
2021/01/16 04:35:50;;;;;;;6.20;3.87;;;;;;;4.02;100.00;102532.37;1886935;76;26212;-77
2021/01/16 04:38:19;;;;;;;4.57;3.67;;;;;;;4.04;100.00;102532.18;1886949;75;26775;-77
2021/01/16 04:40:51;;;;;;;4.63;3.97;;;;;;;4.06;100.00;102531.47;1886984;75;26210;-77
2021/01/16 04:43:22;;;;;;;5.97;4.10;;;;;;;4.04;100.00;102532.18;1887001;75;26795;-78
2021/01/16 04:45:53;;;;;;;4.00;3.60;;;;;;;4.07;100.00;102526.27;1887019;75;26223;-78
2021/01/16 04:48:24;;;;;;;5.80;4.40;;;;;;;4.08;100.00;102519.73;1886955;76;26215;-77
2021/01/16 04:50:56;;;;;;;4.43;4.03;;;;;;;4.04;100.00;102519.29;1887059;75;26207;-78
2021/01/16 04:53:28;;;;;;;5.90;3.83;;;;;;;4.06;100.00;102506.17;1887019;75;26780;-77
2021/01/16 04:55:58;;;;;;;5.57;4.07;;;;;;;4.13;100.00;102502.10;1887127;75;26223;-78
2021/01/16 04:58:29;;;;;;;6.00;4.20;;;;;;;4.12;100.00;102497.65;1887097;75;26219;-78
2021/01/16 05:01:01;;;;;;;6.80;4.20;;;;;;;4.08;100.00;102496.35;1883856;74;930668;-78
2021/01/16 05:03:36;;;;;;;4.30;3.90;;;;;;;4.08;100.00;102481.23;1879070;76;26159;-76
2021/01/16 05:06:09;;;;;;;7.87;4.67;;;;;;;3.89;100.00;102480.59;1879404;76;26280;-77
2021/01/16 05:08:41;;;;;;;6.30;4.63;;;;;;;3.78;100.00;102481.98;1878975;76;26183;-77
2021/01/16 05:11:17;;;;;;;5.67;4.23;;;;;;;3.61;100.00;102475.95;1879069;76;26181;-75
2021/01/16 05:13:49;;;;;;;6.47;4.47;;;;;;;3.53;100.00;102473.36;1878969;76;26599;-77
2021/01/16 05:16:22;;;;;;;5.67;4.77;;;;;;;3.49;100.00;102467.94;1898096;75;26634;-77
2021/01/16 05:18:53;;;;;;;8.20;5.03;;;;;;;3.26;100.00;102461.80;1911987;75;26241;-77
2021/01/16 05:21:23;;;;;;;6.00;4.57;;;;;;;3.18;100.00;102465.55;1898077;75;26191;-78
2021/01/16 05:23:55;;;;;;;9.23;5.67;;;;;;;3.08;100.00;102462.27;1897965;75;26289;-78
2021/01/16 05:26:28;;;;;;;8.57;5.47;;;;;;;3.11;100.00;102445.95;1897977;75;26614;-77
2021/01/16 05:28:59;;;;;;;7.10;5.77;;;;;;;2.92;100.00;102432.87;1912454;73;26657;-76
2021/01/16 05:31:29;;;;;;;8.90;5.80;;;;;;;2.78;100.00;102440.66;1878884;76;26224;-78
2021/01/16 05:34:02;;;;;;;8.10;6.30;;;;;;;2.68;100.00;102434.97;1878902;76;26230;-78
2021/01/16 05:36:32;;;;;;;8.57;6.03;;;;;;;2.59;100.00;102426.53;1879026;76;26198;-76
2021/01/16 05:39:04;;;;;;;9.33;6.67;;;;;;;2.69;100.00;102411.98;1878845;76;26687;-78
2021/01/16 05:41:35;;;;;;;8.67;6.60;;;;;;;2.49;100.00;102406.78;1898050;75;26653;-77
2021/01/16 05:44:06;;;;;;;8.03;6.97;;;;;;;2.55;100.00;102396.94;1897958;75;26195;-76
2021/01/16 05:46:37;;;;;;;9.53;6.77;;;;;;;2.56;100.00;102393.16;1897970;75;26307;-77
2021/01/16 05:49:07;;;;;;;10.47;7.80;;;;;;;2.54;100.00;102385.11;1897945;75;26719;-77
2021/01/16 05:51:38;;;;;;;9.03;7.07;;;;;;;2.54;100.00;102381.00;1911600;75;26615;-77
2021/01/16 05:54:09;;;;;;;9.90;7.70;;;;;;;2.56;100.00;102365.20;1898006;75;26257;-76
2021/01/16 05:56:40;;;;;;;12.03;7.53;;;;;;;2.60;100.00;102366.52;1911574;74;26308;-76
2021/01/16 05:59:13;;;;;;;11.90;8.03;;;;;;;2.53;100.00;102355.13;1898008;75;26191;-76
2021/01/16 06:01:45;;;;;;;12.20;8.33;;;;;;;2.56;100.00;102351.49;1897930;75;26700;-76
2021/01/16 06:04:20;;;;;;;11.73;8.63;;;;;;;2.61;100.00;102341.30;1911600;75;26209;-78
2021/01/16 06:06:51;;;;;;;14.17;9.53;;;;;;;2.66;100.00;102333.31;1898063;75;26175;-76
2021/01/16 06:09:21;;;;;;;15.60;9.27;;;;;;;2.57;100.00;102318.03;1897894;75;26199;-78
2021/01/16 06:11:52;;;;;;;12.80;9.23;;;;;;;2.68;100.00;102304.65;1898002;75;26193;-75
2021/01/16 06:14:22;;;;;;;13.67;9.13;;;;;;;2.61;100.00;102294.13;1897963;75;26281;-75
2021/01/16 06:16:54;;;;;;;13.60;9.37;;;;;;;2.63;100.00;102280.22;1897940;75;26191;-75
2021/01/16 06:19:26;;;;;;;11.43;9.10;;;;;;;2.58;100.00;102278.59;1911559;74;26286;-74
2021/01/16 06:21:56;;;;;;;14.70;10.30;;;;;;;2.47;100.00;102269.02;1877437;76;26697;-76
2021/01/16 06:24:27;;;;;;;15.47;11.13;;;;;;;2.53;100.00;102257.23;1878888;76;26275;-76
2021/01/16 06:26:59;;;;;;;15.23;11.00;;;;;;;2.67;100.00;102252.19;1878893;76;27067;-75
2021/01/16 06:29:31;;;;;;;17.57;11.50;;;;;;;2.58;100.00;102257.50;1878767;75;26731;-76
2021/01/16 06:32:09;;;;;;;14.97;10.80;;;;;;;2.64;100.00;102269.06;1878772;76;26705;-74
2021/01/16 06:34:40;;;;;;;14.80;10.27;;;;;;;2.60;100.00;102263.64;1878822;76;26171;-75
2021/01/16 06:37:15;;;;;;;15.53;11.23;;;;;;;2.67;100.00;102260.42;1878832;76;26184;-76
2021/01/16 06:39:47;;;;;;;16.50;11.03;;;;;;;2.68;100.00;102258.53;1878854;76;26175;-76
2021/01/16 06:42:22;;;;;;;17.33;11.90;;;;;;;2.78;100.00;102256.30;1878869;76;26223;-77
2021/01/16 06:45:02;;;;;;;18.80;11.57;;;;;;;2.78;100.00;102252.70;1878828;76;26174;-77
2021/01/16 06:47:34;;;;;;;16.47;11.57;;;;;;;2.79;100.00;102255.75;1878857;76;26190;-74
2021/01/16 06:50:06;;;;;;;19.37;13.17;;;;;;;2.81;100.00;102245.44;1878846;76;26175;-75
2021/01/16 06:52:38;;;;;;;14.80;10.87;;;;;;;2.70;100.00;102238.06;1878927;76;26693;-77
2021/01/16 06:55:09;;;;;;;18.97;12.10;;;;;;;2.69;100.00;102245.14;1878946;76;26231;-76
2021/01/16 06:57:39;;;;;;;16.43;11.10;;;;;;;2.80;100.00;102232.76;1878956;76;26258;-77
2021/01/16 07:00:12;;;;;;;17.23;12.00;;;;;;;2.71;100.00;102228.80;1878888;76;26198;-76
2021/01/16 07:02:44;;;;;;;17.30;12.50;;;;;;;2.73;100.00;102216.27;1878959;76;26174;-75
2021/01/16 07:05:22;;;;;;;15.93;11.53;;;;;;;2.78;100.00;102204.69;1879096;76;26677;-77
2021/01/16 07:07:53;;;;;;;16.27;12.23;;;;;;;2.78;100.00;102197.31;1878952;76;26163;-77
2021/01/16 07:10:29;;;;;;;15.40;11.30;;;;;;;2.93;100.00;102187.05;1878964;76;26687;-76
2021/01/16 07:12:57;;;;;;;18.50;13.00;;;;;;;2.97;100.00;102172.39;1878399;76;26654;-77
2021/01/16 07:15:29;;;;;;;16.77;12.10;;;;;;;2.92;100.00;102174.89;1879051;76;26673;-77
2021/01/16 07:18:01;;;;;;;16.97;12.43;;;;;;;2.97;100.00;102156.77;1878857;76;26179;-74
2021/01/16 07:20:31;;;;;;;20.53;12.83;;;;;;;3.03;100.00;102146.89;1878949;76;26631;-74
2021/01/16 07:23:02;;;;;;;17.67;12.50;;;;;;;3.09;100.00;102137.81;1878885;76;26715;-76
2021/01/16 07:25:33;;;;;;;16.33;12.27;;;;;;;3.04;100.00;102131.56;1878950;76;26253;-74
2021/01/16 07:28:05;;;;;;;18.40;12.80;;;;;;;3.14;100.00;102128.44;1878948;76;26253;-76
2021/01/16 07:30:36;;;;;;;19.53;13.07;;;;;;;3.24;100.00;102126.17;1878798;75;26219;-75
2021/01/16 07:33:07;;;;;;;18.00;12.97;;;;;;;3.27;100.00;102112.55;1878897;76;26646;-75
2021/01/16 07:35:40;;;;;;;17.57;12.37;;;;;;;3.25;100.00;102107.80;1878966;76;26188;-73
2021/01/16 07:38:13;;;;;;;16.93;12.53;;;;;;;3.23;100.00;102104.40;1878900;76;26179;-75
2021/01/16 07:40:45;;;;;;;19.37;13.27;;;;;;;3.19;100.00;102095.21;1878847;76;26256;-73
2021/01/16 07:43:32;;;;;;;16.90;12.23;;;;;;;3.29;100.00;102084.37;1878856;76;26695;-75
2021/01/16 07:46:09;;;;;;;15.50;11.77;;;;;;;3.34;100.00;102084.59;1877109;76;26243;-75
2021/01/16 07:48:36;;;;;;;16.80;11.87;;;;;;;3.33;100.00;102069.16;1878085;76;26171;-74
2021/01/16 07:51:08;;;;;;;14.77;10.80;;;;;;;3.41;100.00;102070.34;1878895;76;26187;-73
2021/01/16 07:53:41;;;;;;;18.13;12.00;;;;;;;3.43;100.00;102051.73;1878802;76;26237;-73
2021/01/16 07:56:20;;;;;;;17.67;12.30;;;;;;;3.51;100.00;102051.53;1878783;76;26233;-74
2021/01/16 07:59:25;;;;;;;17.60;11.47;;;;;;;3.57;100.00;102050.19;1878882;76;26186;-76
2021/01/16 08:02:41;;;;;;;19.03;12.57;;;;;;;3.59;100.00;102038.44;1812603;79;26680;-76
2021/01/16 08:05:23;;;;;;;17.33;11.83;;;;;;;3.61;100.00;102043.73;1726068;83;26783;-78
2021/01/16 08:08:20;;;;;;;17.40;12.27;;;;;;;3.75;100.00;102018.48;1726101;83;26238;-76
2021/01/16 08:10:54;;;;;;;16.57;12.23;;;;;;;3.79;100.00;102012.88;1706470;83;26685;-77
2021/01/16 08:13:25;;;;;;;19.60;11.87;;;;;;;3.79;100.00;102011.51;1726247;83;26317;-78
2021/01/16 08:15:58;;;;;;;16.83;12.43;;;;;;;3.85;100.00;102001.05;1706463;83;26315;-88
2021/01/16 08:18:30;;;;;;;17.60;12.17;;;;;;;3.94;100.00;101986.00;1726105;83;26246;-75
2021/01/16 08:21:10;;;;;;;16.27;11.47;;;;;;;4.03;100.00;101975.10;1726145;83;26246;-77
2021/01/16 08:23:48;;;;;;;18.20;11.93;;;;;;;4.08;100.00;101969.81;1726033;83;26328;-77
2021/01/16 08:26:20;;;;;;;15.20;10.83;;;;;;;4.16;100.00;101968.72;1726084;83;26336;-79
2021/01/16 08:28:52;;;;;;;20.57;12.70;;;;;;;4.26;100.00;101965.00;1725998;83;26926;-79
2021/01/16 08:31:32;;;;;;;18.53;11.97;;;;;;;4.24;100.00;101964.36;1726262;82;26372;-76
2021/01/16 08:34:02;;;;;;;18.50;11.80;;;;;;;4.43;100.00;101956.59;1706418;83;26348;-76
2021/01/16 08:36:35;;;;;;;16.20;11.43;;;;;;;4.52;100.00;101951.16;1820953;76;26260;-76
2021/01/16 08:39:27;;;;;;;15.83;10.97;;;;;;;4.55;100.00;101955.68;1911509;75;26254;-81
2021/01/16 08:42:07;;;;;;;15.60;10.70;;;;;;;4.62;100.00;101947.38;1897989;75;26633;-77
2021/01/16 08:44:52;;;;;;;17.70;10.53;;;;;;;4.74;100.00;101939.30;1897949;75;26719;-77
2021/01/16 08:47:22;;;;;;;15.93;10.93;;;;;;;4.80;100.00;101925.48;1897944;75;26253;-76
2021/01/16 08:49:52;;;;;;;13.37;10.00;;;;;;;4.83;100.00;101925.59;1898004;75;26754;-75
2021/01/16 08:52:32;;;;;;;18.53;10.50;;;;;;;4.94;100.00;101915.23;1897991;75;26622;-76
2021/01/16 08:55:04;;;;;;;14.77;10.20;;;;;;;5.01;100.00;101905.02;1911592;75;26177;-77
2021/01/16 08:57:36;;;;;;;14.80;10.73;;;;;;;5.04;100.00;101911.47;1878952;76;26183;-77
2021/01/16 09:00:26;;;;;;;13.10;9.43;;;;;;;5.12;100.00;101907.59;1878809;76;26634;-75
2021/01/16 09:03:13;;;;;;;14.47;9.53;;;;;;;5.18;100.00;101905.34;1878885;76;26260;-76
2021/01/16 09:05:44;;;;;;;17.30;10.40;;;;;;;5.25;100.00;101904.73;1879038;76;26237;-75
2021/01/16 09:08:22;;;;;;;18.77;11.03;;;;;;;5.25;100.00;101899.23;1878849;76;26252;-79
2021/01/16 09:11:12;;;;;;;15.60;10.33;;;;;;;5.32;100.00;101895.34;1878935;76;26249;-77
2021/01/16 09:13:45;;;;;;;17.03;10.53;;;;;;;5.36;100.00;101886.94;1878795;76;26599;-78
2021/01/16 09:16:32;;;;;;;16.13;10.30;;;;;;;5.40;100.00;101873.55;1878813;76;26180;-75
2021/01/16 09:19:03;;;;;;;18.57;9.87;;;;;;;5.45;100.00;101871.80;1878828;76;26182;-76
2021/01/16 09:21:33;;;;;;;16.27;10.23;;;;;;;5.45;100.00;101866.30;1878894;76;26252;-77
2021/01/16 09:24:06;;;;;;;13.33;9.60;;;;;;;5.52;100.00;101861.27;1878827;76;26732;-77
2021/01/16 09:26:36;;;;;;;17.83;9.80;;;;;;;5.56;100.00;101869.39;1879032;76;26623;-77
2021/01/16 09:29:06;;;;;;;16.90;9.63;;;;;;;5.64;100.00;101857.53;1878905;76;26187;-78
2021/01/16 09:31:41;;;;;;;17.33;8.73;;;;;;;5.67;100.00;101852.94;1878900;75;26226;-77
2021/01/16 09:34:13;;;;;;;16.37;9.10;;;;;;;5.73;100.00;101845.67;1878898;76;26210;-79
2021/01/16 09:36:49;;;;;;;13.33;8.23;;;;;;;5.79;100.00;101845.58;1879024;76;26177;-77
2021/01/16 09:39:22;;;;;;;12.97;7.87;;;;;;;5.78;100.00;101841.13;1898120;75;26246;-78
2021/01/16 09:41:54;;;;;;;12.53;7.63;;;;;;;5.83;100.00;101830.80;1897933;75;26642;-78
2021/01/16 09:44:52;;;;;;;11.00;6.80;;;;;;;5.88;100.00;101835.12;1911612;75;26208;-76
2021/01/16 09:47:49;;;;;;;9.80;6.33;;;;;;;5.90;100.00;101839.89;1898065;75;26629;-79
2021/01/16 09:50:22;;;;;;;11.53;5.97;;;;;;;6.00;100.00;101847.59;1897987;75;26491;-76
2021/01/16 09:52:54;;;;;;;9.50;5.43;;;;;;;6.07;100.00;101839.57;1897917;75;26202;-79
2021/01/16 09:55:32;;;;;;;9.33;5.77;;;;;;;6.09;100.00;101838.78;1897989;75;26717;-76
2021/01/16 09:58:03;;;;;;;8.03;5.33;;;;;;;6.12;100.00;101828.66;1911550;75;26641;-77
2021/01/16 10:00:36;;;;;;;6.77;4.73;;;;;;;6.20;100.00;101824.23;1897985;75;26240;-79
2021/01/16 10:03:08;;;;;;;7.60;4.90;;;;;;;6.24;100.00;101827.36;1898073;75;26650;-77
2021/01/16 10:05:41;;;;;;;6.63;4.30;;;;;;;6.50;100.00;101820.09;1897899;75;26650;-78
2021/01/16 10:08:13;;;;;;;6.40;3.77;;;;;;;6.32;100.00;101815.46;1897925;75;26265;-80
2021/01/16 10:10:48;;;;;;;5.83;4.27;;;;;;;6.33;100.00;101814.92;1914653;73;26270;-82
2021/01/16 10:13:31;;;;;;;6.50;3.97;;;;;;;6.33;100.00;101810.22;1877487;76;26176;-79
2021/01/16 10:16:03;;;;;;;6.10;3.70;;;;;;;6.39;100.00;101798.27;1898088;75;26190;-79
2021/01/16 10:18:34;;;;;;;7.33;3.43;;;;;;;6.45;100.00;101811.67;1897901;75;26622;-78
2021/01/16 10:21:07;;;;;;;5.53;3.20;;;;;;;6.49;100.00;101801.00;1897923;75;26261;-80
2021/01/16 10:23:39;;;;;;;6.43;3.23;;;;;;;6.69;100.00;101797.39;1897979;75;26230;-80
2021/01/16 10:26:12;;;;;;;6.50;3.43;;;;;;;6.57;100.00;101794.61;1911546;75;26235;-79
2021/01/16 10:28:43;;;;;;;5.87;3.30;;;;;;;6.50;100.00;101794.41;1877316;76;26199;-76
2021/01/16 10:31:13;;;;;;;5.80;3.47;;;;;;;6.56;100.00;101790.69;1908591;75;26213;-79
2021/01/16 10:33:45;;;;;;;3.90;3.00;;;;;;;6.56;100.00;101803.11;1897932;74;26794;-77
2021/01/16 10:36:17;;;;;;;5.40;2.70;;;;;;;6.62;100.00;101800.27;1897989;75;26292;-76
2021/01/16 10:38:52;;;;;;;8.73;4.13;;;;;;;6.66;100.00;101793.73;1911662;75;26204;-77
2021/01/16 10:41:24;;;;;;;4.70;3.07;;;;;;;6.60;100.00;101787.75;1877473;76;26199;-77
2021/01/16 10:44:03;;;;;;;5.83;3.47;;;;;;;6.64;100.00;101791.19;1909888;75;26600;-76
2021/01/16 10:46:40;;;;;;;5.57;3.30;;;;;;;6.72;100.00;101776.19;1898014;75;26313;-77
2021/01/16 10:49:19;;;;;;;3.93;2.73;;;;;;;6.70;100.00;101779.21;1898039;75;26207;-76
2021/01/16 10:51:51;;;;;;;5.13;2.93;;;;;;;6.81;100.00;101784.44;1897960;75;26639;-77
2021/01/16 10:54:21;;;;;;;5.20;3.13;;;;;;;6.79;100.00;101776.95;1911543;75;26746;-74
2021/01/16 10:57:02;;;;;;;5.60;3.30;;;;;;;6.75;100.00;101774.36;1877264;76;26191;-79
2021/01/16 10:59:34;;;;;;;7.13;3.00;;;;;;;6.87;100.00;101769.70;1877443;76;26185;-78
2021/01/16 11:02:12;;;;;;;4.77;2.70;;;;;;;6.77;100.00;101766.13;1877474;76;26173;-79
2021/01/16 11:04:44;;;;;;;4.87;2.97;;;;;;;6.81;100.00;101755.44;1877404;76;26607;-79
2021/01/16 11:07:26;;;;;;;3.83;2.97;;;;;;;6.89;100.00;101742.66;1898065;75;26195;-75
2021/01/16 11:10:17;;;;;;;4.93;3.10;;;;;;;6.95;100.00;101745.02;1911642;75;26623;-79
2021/01/16 11:12:47;;;;;;;4.37;3.00;;;;;;;6.94;100.00;101744.17;1897968;75;26180;-77
2021/01/16 11:15:31;;;;;;;4.30;3.63;;;;;;;7.03;100.00;101737.75;1911525;75;26228;-78
2021/01/16 11:18:01;;;;;;;4.90;3.07;;;;;;;6.95;100.00;101726.53;1877308;76;26176;-80
2021/01/16 11:20:33;;;;;;;8.47;3.70;;;;;;;7.06;100.00;101725.67;1898090;75;26192;-79
2021/01/16 11:23:27;;;;;;;4.20;3.20;;;;;;;7.09;100.00;101720.22;1897987;75;26226;-79
2021/01/16 11:25:58;;;;;;;5.37;3.60;;;;;;;7.10;100.00;101721.34;1911894;75;26293;-78
2021/01/16 11:28:29;;;;;;;5.73;3.10;;;;;;;7.02;100.00;101722.25;1898059;75;26195;-78
2021/01/16 11:31:08;;;;;;;4.73;3.13;;;;;;;7.01;100.00;101710.39;1897993;75;26222;-77
2021/01/16 11:33:40;;;;;;;4.80;3.63;;;;;;;7.11;100.00;101712.52;1898039;74;26750;-78
2021/01/16 11:36:15;;;;;;;5.93;3.53;;;;;;;7.15;100.00;101702.13;1911664;73;26212;-78
2021/01/16 11:38:46;;;;;;;4.57;3.27;;;;;;;7.10;100.00;101708.10;1898189;75;26227;-78
2021/01/16 11:41:18;;;;;;;7.50;4.00;;;;;;;7.09;100.00;101708.64;1898100;75;26186;-77
2021/01/16 11:43:49;;;;;;;4.37;3.17;;;;;;;7.05;100.00;101703.30;1916272;73;26176;-77
2021/01/16 11:46:23;;;;;;;4.50;3.50;;;;;;;7.16;100.00;101704.35;1910283;75;26175;-78
2021/01/16 11:48:53;;;;;;;4.83;3.43;;;;;;;7.16;100.00;101701.59;1911572;75;26183;-79